createdAt,value
2022-08-30T00:02:02.980Z,3.22
2022-08-30T00:04:35.431Z,2.85
2022-08-30T00:07:07.854Z,3.33
2022-08-30T00:09:40.258Z,2.83
2022-08-30T00:12:12.693Z,2.75
2022-08-30T00:14:45.793Z,3.13
2022-08-30T00:17:19.051Z,2.85
2022-08-30T00:19:51.554Z,2.88
2022-08-30T00:22:24.387Z,2.13
2022-08-30T00:24:56.822Z,2.67
2022-08-30T00:27:30.365Z,2.95
2022-08-30T00:30:04.303Z,2.85
2022-08-30T00:32:37.129Z,2.35
2022-08-30T00:35:12.307Z,3.13
2022-08-30T00:37:44.784Z,2.65
2022-08-30T00:40:19.947Z,3.80
2022-08-30T00:42:59.933Z,3.13
2022-08-30T00:45:38.308Z,3.30
2022-08-30T00:48:10.894Z,3.53
2022-08-30T00:50:46.843Z,3.78
2022-08-30T00:53:22.829Z,3.38
2022-08-30T00:55:56.254Z,3.55
2022-08-30T00:58:34.085Z,3.10
2022-08-30T01:01:08.891Z,2.95
2022-08-30T01:03:43.175Z,2.63
2022-08-30T01:06:16.738Z,3.50
2022-08-30T01:08:49.106Z,3.30
2022-08-30T01:11:24.128Z,3.55
2022-08-30T01:13:57.627Z,3.58
2022-08-30T01:16:32.083Z,3.20
2022-08-30T01:19:09.641Z,3.05
2022-08-30T01:21:48.186Z,4.00
2022-08-30T01:24:22.042Z,3.08
2022-08-30T01:26:54.799Z,2.70
2022-08-30T01:29:28.074Z,2.70
2022-08-30T01:32:00.726Z,3.90
2022-08-30T01:34:33.179Z,3.15
2022-08-30T01:37:05.836Z,3.78
2022-08-30T01:39:38.993Z,3.55
2022-08-30T01:42:12.057Z,3.45
2022-08-30T01:44:45.048Z,2.58
2022-08-30T01:47:18.648Z,4.82
2022-08-30T01:49:51.187Z,3.30
2022-08-30T01:52:24.365Z,3.35
2022-08-30T01:54:57.386Z,3.42
2022-08-30T01:57:29.793Z,3.50
2022-08-30T02:00:04.438Z,4.13
2022-08-30T02:02:44.447Z,2.83
2022-08-30T02:05:17.040Z,3.70
2022-08-30T02:07:49.535Z,2.85
2022-08-30T02:10:23.035Z,3.03
2022-08-30T02:12:55.495Z,2.88
2022-08-30T02:15:28.066Z,3.38
2022-08-30T02:18:01.217Z,2.80
2022-08-30T02:20:33.998Z,3.33
2022-08-30T02:23:06.570Z,3.63
2022-08-30T02:25:40.315Z,3.05
2022-08-30T02:28:15.080Z,3.50
2022-08-30T02:30:47.983Z,3.65
2022-08-30T02:33:20.539Z,3.08
2022-08-30T02:35:52.956Z,3.47
2022-08-30T02:38:26.383Z,3.33
2022-08-30T02:40:59.507Z,2.90
2022-08-30T02:43:31.909Z,2.95
2022-08-30T02:46:04.588Z,3.33
2022-08-30T02:48:37.021Z,4.05
2022-08-30T02:51:12.077Z,3.47
2022-08-30T02:53:45.187Z,3.20
2022-08-30T02:56:18.527Z,4.30
2022-08-30T02:58:50.915Z,3.58
2022-08-30T03:01:27.487Z,3.58
2022-08-30T03:04:02.194Z,3.20
2022-08-30T03:06:34.653Z,3.17
2022-08-30T03:09:07.192Z,3.67
2022-08-30T03:11:41.415Z,3.78
2022-08-30T03:14:13.794Z,3.38
2022-08-30T03:16:46.221Z,3.63
2022-08-30T03:19:18.666Z,3.63
2022-08-30T03:21:51.220Z,3.67
2022-08-30T03:24:23.594Z,2.65
2022-08-30T03:26:56.684Z,3.10
2022-08-30T03:29:29.338Z,3.47
2022-08-30T03:32:01.800Z,3.10
2022-08-30T03:34:34.293Z,3.42
2022-08-30T03:37:06.720Z,3.40
2022-08-30T03:39:39.381Z,3.63
2022-08-30T03:42:13.063Z,3.63
2022-08-30T03:44:45.787Z,3.30
2022-08-30T03:47:18.200Z,3.42
2022-08-30T03:49:50.611Z,3.28
2022-08-30T03:52:23.040Z,2.80
2022-08-30T03:54:55.519Z,3.33
2022-08-30T03:57:28.756Z,3.22
2022-08-30T04:00:01.329Z,3.83
2022-08-30T04:02:43.856Z,3.20
2022-08-30T04:05:18.642Z,3.67
2022-08-30T04:07:51.358Z,4.20
2022-08-30T04:10:23.967Z,4.07
2022-08-30T04:12:57.059Z,3.55
2022-08-30T04:15:29.478Z,3.13
2022-08-30T04:18:01.919Z,4.60
2022-08-30T04:20:34.687Z,4.20
2022-08-30T04:23:07.547Z,4.70
2022-08-30T04:25:41.326Z,4.07
2022-08-30T04:28:14.799Z,3.33
2022-08-30T04:30:47.218Z,3.95
2022-08-30T04:33:19.851Z,3.70
2022-08-30T04:35:52.427Z,3.00
2022-08-30T04:38:30.302Z,3.45
2022-08-30T04:41:03.203Z,2.70
2022-08-30T04:43:36.271Z,3.58
2022-08-30T04:46:09.366Z,4.05
2022-08-30T04:48:41.876Z,3.42
2022-08-30T04:51:16.510Z,3.97
2022-08-30T04:53:48.975Z,4.07
2022-08-30T04:56:23.775Z,3.65
2022-08-30T04:58:56.885Z,4.00
2022-08-30T05:01:31.815Z,4.25
2022-08-30T05:04:09.163Z,3.70
2022-08-30T05:06:41.771Z,4.18
2022-08-30T05:09:14.256Z,4.45
2022-08-30T05:11:46.706Z,4.32
2022-08-30T05:14:19.815Z,3.75
2022-08-30T05:16:52.152Z,3.38
2022-08-30T05:19:24.539Z,4.03
2022-08-30T05:21:56.902Z,3.95
2022-08-30T05:24:29.613Z,3.58
2022-08-30T05:27:02.290Z,3.80
2022-08-30T05:29:35.314Z,4.50
2022-08-30T05:32:08.559Z,4.25
2022-08-30T05:34:40.915Z,4.45
2022-08-30T05:37:13.298Z,4.10
2022-08-30T05:39:51.260Z,3.92
2022-08-30T05:42:24.258Z,3.85
2022-08-30T05:44:57.343Z,3.42
2022-08-30T05:47:29.831Z,4.00
2022-08-30T05:50:02.386Z,3.80
2022-08-30T05:52:35.271Z,4.75
2022-08-30T05:55:09.338Z,4.13
2022-08-30T05:57:41.958Z,4.75
2022-08-30T06:00:17.337Z,5.03
2022-08-30T06:02:54.109Z,4.63
2022-08-30T06:05:26.498Z,3.85
2022-08-30T06:07:58.915Z,4.88
2022-08-30T06:10:31.275Z,4.70
2022-08-30T06:13:03.766Z,4.18
2022-08-30T06:15:37.303Z,4.95
2022-08-30T06:18:09.710Z,4.63
2022-08-30T06:20:43.263Z,5.10
2022-08-30T06:23:16.926Z,4.43
2022-08-30T06:25:49.426Z,4.95
2022-08-30T06:28:22.144Z,4.90
2022-08-30T06:30:55.281Z,4.47
2022-08-30T06:33:27.765Z,3.85
2022-08-30T06:36:05.725Z,4.05
2022-08-30T06:38:39.182Z,4.57
2022-08-30T06:41:14.676Z,4.25
2022-08-30T06:43:49.285Z,4.90
2022-08-30T06:46:24.652Z,4.45
2022-08-30T06:48:57.373Z,4.03
2022-08-30T06:51:32.242Z,3.30
2022-08-30T06:54:09.291Z,4.72
2022-08-30T06:56:57.570Z,4.53
2022-08-30T06:59:31.741Z,3.78
2022-08-30T07:02:05.625Z,4.07
2022-08-30T07:04:38.390Z,4.43
2022-08-30T07:07:10.930Z,3.58
2022-08-30T07:09:43.851Z,3.70
2022-08-30T07:12:16.443Z,4.78
2022-08-30T07:14:49.063Z,4.28
2022-08-30T07:17:40.158Z,4.55
2022-08-30T07:20:12.788Z,4.03
2022-08-30T07:22:45.267Z,4.07
2022-08-30T07:25:17.959Z,4.28
2022-08-30T07:27:52.327Z,5.38
2022-08-30T07:30:24.837Z,3.75
2022-08-30T07:32:58.075Z,4.05
2022-08-30T07:35:30.967Z,4.65
2022-08-30T07:38:03.362Z,3.90
2022-08-30T07:40:38.198Z,4.18
2022-08-30T07:43:10.786Z,3.80
2022-08-30T07:45:43.283Z,4.03
2022-08-30T07:48:16.356Z,5.07
2022-08-30T07:50:48.864Z,4.18
2022-08-30T07:53:22.892Z,3.97
2022-08-30T07:55:55.311Z,3.00
2022-08-30T07:58:27.706Z,4.35
2022-08-30T08:01:01.357Z,4.10
2022-08-30T08:03:34.944Z,4.22
2022-08-30T08:06:09.814Z,3.92
2022-08-30T08:08:44.657Z,3.65
2022-08-30T08:11:20.033Z,5.00
2022-08-30T08:13:54.560Z,4.63
2022-08-30T08:16:29.235Z,5.22
2022-08-30T08:19:03.253Z,3.95
2022-08-30T08:21:37.019Z,4.75
2022-08-30T08:24:09.507Z,4.47
2022-08-30T08:26:45.468Z,4.43
2022-08-30T08:29:18.078Z,4.15
2022-08-30T08:31:50.517Z,4.72
2022-08-30T08:34:24.116Z,3.97
2022-08-30T08:36:56.571Z,4.38
2022-08-30T08:39:28.945Z,4.43
2022-08-30T08:42:12.600Z,4.57
2022-08-30T08:44:54.666Z,5.03
2022-08-30T08:47:35.370Z,3.75
2022-08-30T08:50:13.155Z,4.35
2022-08-30T08:53:20.535Z,4.60
2022-08-30T08:56:15.184Z,3.90
2022-08-30T08:58:49.357Z,5.45
2022-08-30T09:01:23.711Z,4.82
2022-08-30T09:03:58.285Z,4.50
2022-08-30T09:06:45.673Z,5.65
2022-08-30T09:09:23.603Z,5.00
2022-08-30T09:11:56.017Z,5.28
2022-08-30T09:14:34.193Z,5.13
2022-08-30T09:17:08.422Z,4.67
2022-08-30T09:19:43.487Z,5.38
2022-08-30T09:22:25.745Z,4.32
2022-08-30T09:25:02.436Z,3.88
2022-08-30T09:27:39.247Z,4.05
2022-08-30T09:30:17.059Z,5.45
2022-08-30T09:32:54.588Z,4.88
2022-08-30T09:35:34.826Z,5.45
2022-08-30T09:38:09.800Z,3.60
2022-08-30T09:40:45.700Z,5.43
2022-08-30T09:43:23.698Z,4.88
2022-08-30T09:46:10.640Z,5.63
2022-08-30T09:48:48.755Z,6.00
2022-08-30T09:51:41.772Z,6.03
2022-08-30T09:54:21.043Z,5.57
2022-08-30T10:00:14.748Z,5.68
2022-08-30T10:03:07.387Z,6.43
2022-08-30T10:05:48.172Z,7.45
2022-08-30T10:08:30.495Z,6.18
2022-08-30T10:11:07.754Z,6.50
2022-08-30T10:14:10.970Z,6.90
2022-08-30T10:16:54.332Z,7.03
2022-08-30T10:19:39.071Z,7.80
2022-08-30T10:22:16.516Z,8.00
2022-08-30T10:24:53.679Z,8.55
2022-08-30T10:27:29.851Z,7.60
2022-08-30T10:30:06.685Z,7.55
2022-08-30T10:32:46.496Z,9.52
2022-08-30T10:35:21.916Z,9.13
2022-08-30T10:38:00.921Z,8.95
2022-08-30T10:40:55.206Z,8.05
2022-08-30T10:43:34.098Z,7.85
2022-08-30T10:46:14.191Z,8.10
2022-08-30T10:48:48.353Z,8.02
2022-08-30T10:51:24.866Z,8.23
2022-08-30T10:54:01.887Z,7.65
2022-08-30T10:56:38.796Z,8.88
2022-08-30T10:59:12.168Z,8.93
2022-08-30T11:02:16.200Z,7.07
2022-08-30T11:05:15.604Z,7.57
2022-08-30T11:08:02.362Z,7.68
2022-08-30T11:10:49.676Z,7.80
2022-08-30T11:13:25.417Z,8.98
2022-08-30T11:16:04.201Z,7.72
2022-08-30T11:18:45.211Z,8.35
2022-08-30T11:21:31.123Z,8.60
2022-08-30T11:24:11.403Z,8.75
2022-08-30T11:26:57.360Z,8.30
2022-08-30T11:29:36.832Z,8.02
2022-08-30T11:32:57.614Z,7.50
2022-08-30T11:39:00.898Z,8.32
2022-08-30T11:41:41.575Z,8.43
2022-08-30T11:44:28.498Z,7.93
2022-08-30T11:47:21.987Z,7.43
2022-08-30T11:50:09.780Z,7.70
2022-08-30T11:52:56.271Z,7.68
2022-08-30T11:55:45.137Z,7.97
2022-08-30T11:58:30.266Z,7.25
2022-08-30T12:01:40.788Z,7.35
2022-08-30T12:06:53.707Z,8.05
2022-08-30T12:10:05.086Z,6.60
2022-08-30T12:12:50.928Z,6.65
2022-08-30T12:15:49.080Z,7.70
2022-08-30T12:18:28.929Z,7.43
2022-08-30T12:21:08.370Z,7.07
2022-08-30T12:23:48.930Z,7.85
2022-08-30T12:26:32.459Z,5.80
2022-08-30T12:29:11.867Z,7.15
2022-08-30T12:31:47.915Z,6.78
2022-08-30T12:34:27.002Z,6.65
2022-08-30T12:37:04.489Z,6.45
2022-08-30T12:39:39.202Z,7.85
2022-08-30T12:42:17.794Z,7.15
2022-08-30T12:44:54.773Z,6.63
2022-08-30T12:47:33.539Z,6.20
2022-08-30T12:50:12.164Z,7.40
2022-08-30T12:52:56.044Z,6.53
2022-08-30T12:55:30.581Z,5.78
2022-08-30T12:58:06.674Z,5.68
2022-08-30T13:00:41.460Z,6.05
2022-08-30T13:03:30.154Z,5.70
2022-08-30T13:08:48.151Z,6.15
2022-08-30T13:11:29.548Z,5.15
2022-08-30T13:14:25.315Z,4.97
2022-08-30T13:17:23.326Z,5.93
2022-08-30T13:20:01.628Z,6.13
2022-08-30T13:22:36.607Z,6.72
2022-08-30T13:25:10.991Z,4.93
2022-08-30T13:27:43.412Z,5.82
2022-08-30T13:30:16.262Z,5.68
2022-08-30T13:32:49.378Z,5.32
2022-08-30T13:35:21.737Z,6.05
2022-08-30T13:37:55.080Z,5.28
2022-08-30T13:40:27.652Z,6.18
2022-08-30T13:43:00.104Z,6.10
2022-08-30T13:45:47.797Z,6.32
2022-08-30T13:48:24.866Z,5.40
2022-08-30T13:50:57.702Z,6.28
2022-08-30T13:56:24.023Z,5.05
2022-08-30T13:58:56.402Z,5.68
2022-08-30T14:01:29.268Z,6.13
2022-08-30T14:04:18.603Z,6.65
2022-08-30T14:09:43.715Z,6.18
2022-08-30T14:12:16.426Z,6.13
2022-08-30T14:15:09.299Z,6.50
2022-08-30T14:17:41.787Z,5.85
2022-08-30T14:20:16.797Z,7.18
2022-08-30T14:22:50.339Z,4.97
2022-08-30T14:25:22.701Z,6.28
2022-08-30T14:27:55.386Z,5.15
2022-08-30T14:30:27.888Z,5.57
2022-08-30T14:33:00.368Z,5.90
2022-08-30T14:35:33.381Z,4.93
2022-08-30T14:38:05.826Z,6.57
2022-08-30T14:40:39.561Z,5.68
2022-08-30T14:43:11.959Z,5.60
2022-08-30T14:45:44.479Z,5.45
2022-08-30T14:48:17.165Z,5.25
2022-08-30T14:50:50.322Z,5.00
2022-08-30T14:53:22.766Z,4.65
2022-08-30T14:55:55.145Z,4.63
2022-08-30T14:58:27.482Z,4.68
2022-08-30T15:01:00.276Z,5.32
2022-08-30T15:03:32.839Z,4.55
2022-08-30T15:06:07.975Z,5.78
2022-08-30T15:08:40.718Z,4.95
2022-08-30T15:11:15.173Z,4.22
2022-08-30T15:13:48.262Z,5.05
2022-08-30T15:16:22.485Z,4.50
2022-08-30T15:18:56.477Z,4.60
2022-08-30T15:21:32.786Z,4.53
2022-08-30T15:24:08.156Z,4.50
2022-08-30T15:26:42.973Z,4.93
2022-08-30T15:29:17.719Z,4.93
2022-08-30T15:31:50.385Z,4.28
2022-08-30T15:34:27.911Z,5.43
2022-08-30T15:37:01.771Z,5.50
2022-08-30T15:39:36.150Z,4.65
2022-08-30T15:42:08.543Z,5.43
2022-08-30T15:44:40.935Z,5.32
2022-08-30T15:47:14.296Z,4.90
2022-08-30T15:49:53.318Z,5.40
2022-08-30T15:52:26.607Z,4.70
2022-08-30T15:54:59.400Z,4.50
2022-08-30T15:57:32.771Z,4.55
2022-08-30T16:00:07.220Z,4.07
2022-08-30T16:02:41.095Z,4.95
2022-08-30T16:05:14.083Z,5.45
2022-08-30T16:07:47.148Z,4.82
2022-08-30T16:10:21.126Z,5.18
2022-08-30T16:12:53.620Z,4.13
2022-08-30T16:15:26.457Z,4.63
2022-08-30T16:17:58.894Z,4.97
2022-08-30T16:20:31.266Z,4.50
2022-08-30T16:23:04.387Z,4.28
2022-08-30T16:25:40.613Z,5.07
2022-08-30T16:28:13.522Z,4.18
2022-08-30T16:30:45.982Z,5.00
2022-08-30T16:33:18.999Z,5.00
2022-08-30T16:35:51.919Z,4.57
2022-08-30T16:38:26.555Z,4.47
2022-08-30T16:41:02.243Z,5.30
2022-08-30T16:43:35.144Z,4.78
2022-08-30T16:46:09.903Z,5.03
2022-08-30T16:48:45.105Z,4.63
2022-08-30T16:51:19.931Z,4.38
2022-08-30T16:53:55.619Z,5.38
2022-08-30T16:56:30.090Z,4.38
2022-08-30T16:59:05.336Z,4.78
2022-08-30T17:01:41.459Z,5.40
2022-08-30T17:04:18.439Z,4.80
2022-08-30T17:06:51.878Z,5.28
2022-08-30T17:09:25.177Z,5.43
2022-08-30T17:11:58.383Z,4.35
2022-08-30T17:14:31.235Z,4.75
2022-08-30T17:17:03.644Z,5.93
2022-08-30T17:19:41.492Z,4.72
2022-08-30T17:22:15.606Z,4.78
2022-08-30T17:24:49.075Z,5.78
2022-08-30T17:27:21.507Z,4.47
2022-08-30T17:29:54.491Z,4.97
2022-08-30T17:32:26.928Z,5.88
2022-08-30T17:34:59.627Z,5.22
2022-08-30T17:37:32.635Z,5.10
2022-08-30T17:40:07.086Z,5.63
2022-08-30T17:42:47.522Z,4.60
2022-08-30T17:45:20.110Z,5.13
2022-08-30T17:47:52.556Z,4.97
2022-08-30T17:50:24.990Z,5.75
2022-08-30T17:53:00.963Z,5.53
2022-08-30T17:55:34.362Z,5.70
2022-08-30T17:58:07.405Z,5.18
2022-08-30T18:00:40.164Z,4.97
2022-08-30T18:03:13.169Z,5.78
2022-08-30T18:05:47.870Z,5.38
2022-08-30T18:08:20.369Z,5.97
2022-08-30T18:10:53.787Z,6.80
2022-08-30T18:13:26.414Z,4.63
2022-08-30T18:16:00.969Z,6.03
2022-08-30T18:18:33.751Z,7.53
2022-08-30T18:21:12.475Z,6.65
2022-08-30T18:23:45.601Z,7.00
2022-08-30T18:26:19.695Z,6.72
2022-08-30T18:28:56.587Z,6.18
2022-08-30T18:31:29.407Z,5.03
2022-08-30T18:34:01.855Z,5.65
2022-08-30T18:36:34.459Z,6.65
2022-08-30T18:39:07.018Z,5.30
2022-08-30T18:41:43.037Z,6.15
2022-08-30T18:44:27.869Z,6.20
2022-08-30T18:47:05.638Z,6.30
2022-08-30T18:49:38.293Z,4.78
2022-08-30T18:52:11.304Z,6.13
2022-08-30T18:54:52.379Z,6.05
2022-08-30T18:57:26.195Z,6.15
2022-08-30T18:59:58.623Z,5.15
2022-08-30T19:02:31.070Z,6.72
2022-08-30T19:05:04.304Z,7.93
2022-08-30T19:07:37.607Z,8.45
2022-08-30T19:10:13.202Z,7.10
2022-08-30T19:12:46.829Z,7.65
2022-08-30T19:15:20.251Z,7.00
2022-08-30T19:17:53.358Z,5.22
2022-08-30T19:20:26.152Z,5.78
2022-08-30T19:23:09.179Z,7.35
2022-08-30T19:25:53.323Z,6.13
2022-08-30T19:28:26.627Z,7.10
2022-08-30T19:30:59.319Z,5.15
2022-08-30T19:33:32.507Z,5.60
2022-08-30T19:36:05.638Z,5.65
2022-08-30T19:38:38.076Z,5.78
2022-08-30T19:41:12.174Z,5.22
2022-08-30T19:43:45.321Z,6.60
2022-08-30T19:46:17.754Z,6.18
2022-08-30T19:48:50.180Z,5.82
2022-08-30T19:51:22.543Z,6.03
2022-08-30T19:53:58.712Z,5.15
2022-08-30T19:56:33.363Z,5.85
2022-08-30T19:59:06.445Z,5.88
2022-08-30T20:01:39.170Z,5.07
2022-08-30T20:04:12.003Z,5.88
2022-08-30T20:06:45.400Z,4.95
2022-08-30T20:09:18.207Z,5.20
2022-08-30T20:11:52.561Z,4.93
2022-08-30T20:14:32.082Z,5.15
2022-08-30T20:17:04.602Z,4.68
2022-08-30T20:19:36.954Z,5.25
2022-08-30T20:22:09.366Z,4.22
2022-08-30T20:24:43.861Z,4.15
2022-08-30T20:27:16.691Z,5.05
2022-08-30T20:29:49.944Z,5.10
2022-08-30T20:32:23.912Z,4.25
2022-08-30T20:34:58.286Z,4.30
2022-08-30T20:37:32.570Z,5.05
2022-08-30T20:40:06.049Z,4.40
2022-08-30T20:42:40.836Z,3.55
2022-08-30T20:45:15.932Z,4.55
2022-08-30T20:47:48.455Z,4.55
2022-08-30T20:50:20.929Z,4.43
2022-08-30T20:52:53.331Z,5.95
2022-08-30T20:55:25.778Z,4.68
2022-08-30T20:57:58.722Z,4.88
2022-08-30T21:00:31.833Z,4.28
2022-08-30T21:03:09.291Z,4.40
2022-08-30T21:05:57.033Z,5.07
2022-08-30T21:08:29.782Z,4.95
2022-08-30T21:11:02.190Z,5.00
2022-08-30T21:13:34.687Z,3.95
2022-08-30T21:16:08.143Z,4.47
2022-08-30T21:18:44.735Z,5.72
2022-08-30T21:21:20.642Z,5.13
2022-08-30T21:23:54.214Z,3.58
2022-08-30T21:26:27.643Z,3.70
2022-08-30T21:29:00.011Z,5.10
2022-08-30T21:31:33.909Z,4.05
2022-08-30T21:34:06.759Z,6.05
2022-08-30T21:36:47.788Z,4.40
2022-08-30T21:39:22.363Z,5.20
2022-08-30T21:41:56.481Z,4.90
2022-08-30T21:44:28.835Z,4.63
2022-08-30T21:47:01.878Z,4.63
2022-08-30T21:49:34.613Z,4.13
2022-08-30T21:52:07.074Z,4.85
2022-08-30T21:54:39.542Z,4.78
2022-08-30T21:57:12.998Z,4.50
2022-08-30T21:59:45.386Z,4.90
2022-08-30T22:02:18.920Z,4.57
2022-08-30T22:04:51.408Z,4.47
2022-08-30T22:07:23.878Z,4.80
2022-08-30T22:09:56.284Z,4.95
2022-08-30T22:12:28.716Z,4.32
2022-08-30T22:15:01.101Z,4.72
2022-08-30T22:17:34.191Z,3.97
2022-08-30T22:20:07.822Z,4.20
2022-08-30T22:22:40.216Z,4.43
2022-08-30T22:25:12.855Z,4.32
2022-08-30T22:27:45.617Z,3.78
2022-08-30T22:30:18.391Z,4.28
2022-08-30T22:32:52.688Z,3.75
2022-08-30T22:35:25.801Z,5.00
2022-08-30T22:37:58.357Z,4.88
2022-08-30T22:40:31.010Z,5.32
2022-08-30T22:43:04.502Z,4.53
2022-08-30T22:45:36.949Z,4.88
2022-08-30T22:48:10.459Z,4.15
2022-08-30T22:50:42.940Z,4.78
2022-08-30T22:53:15.400Z,4.45
2022-08-30T22:55:47.828Z,4.70
2022-08-30T22:58:20.221Z,5.07
2022-08-30T23:00:54.558Z,4.63
2022-08-30T23:03:28.275Z,4.20
2022-08-30T23:06:00.734Z,4.20
2022-08-30T23:08:33.126Z,5.43
2022-08-30T23:11:05.833Z,4.78
2022-08-30T23:13:38.952Z,5.10
2022-08-30T23:16:12.465Z,3.55
2022-08-30T23:18:47.382Z,4.97
2022-08-30T23:21:22.485Z,4.82
2022-08-30T23:24:14.006Z,3.78
2022-08-30T23:27:04.996Z,4.15
2022-08-30T23:29:56.067Z,5.00
2022-08-30T23:32:46.436Z,3.55
2022-08-30T23:35:38.314Z,4.85
2022-08-30T23:38:28.931Z,4.28
2022-08-30T23:41:19.515Z,4.35
2022-08-30T23:44:10.183Z,3.28
2022-08-30T23:47:00.824Z,4.55
2022-08-30T23:49:51.536Z,3.97
2022-08-30T23:52:42.975Z,3.92
2022-08-30T23:55:33.385Z,4.07
2022-08-30T23:58:24.386Z,4.22
